createdAt,value
2016-12-15T00:00:28.508Z,4.16
2016-12-15T00:01:08.995Z,4.2
2016-12-15T00:01:49.505Z,4.17
2016-12-15T00:02:29.945Z,4.16
2016-12-15T00:03:10.432Z,4.17
2016-12-15T00:03:50.906Z,4.14
2016-12-15T00:04:31.419Z,4.17
2016-12-15T00:05:11.858Z,4.17
2016-12-15T00:05:52.345Z,4.28
2016-12-15T00:06:32.817Z,4.28
2016-12-15T00:07:13.277Z,4.2
2016-12-15T00:07:53.771Z,4.23
2016-12-15T00:08:34.244Z,4.28
2016-12-15T00:09:14.743Z,4.28
2016-12-15T00:09:55.235Z,4.24
2016-12-15T00:10:35.669Z,4.28
2016-12-15T00:11:16.142Z,4.31
2016-12-15T00:11:56.609Z,4.28
2016-12-15T00:12:37.122Z,4.26
2016-12-15T00:13:17.655Z,4.24
2016-12-15T00:13:58.111Z,4.26
2016-12-15T00:14:38.576Z,4.23
2016-12-15T00:15:19.070Z,4.24
2016-12-15T00:15:59.534Z,4.26
2016-12-15T00:16:40.010Z,4.26
2016-12-15T00:17:20.577Z,4.3
2016-12-15T00:18:01.041Z,4.26
2016-12-15T00:18:41.501Z,4.23
2016-12-15T00:19:21.976Z,4.28
2016-12-15T00:20:02.440Z,4.26
2016-12-15T00:20:42.898Z,4.19
2016-12-15T00:21:23.391Z,4.23
2016-12-15T00:22:03.873Z,4.16
2016-12-15T00:22:44.346Z,4.26
2016-12-15T00:23:24.837Z,4.31
2016-12-15T00:24:05.284Z,4.23
2016-12-15T00:24:45.774Z,4.28
2016-12-15T00:25:26.244Z,4.23
2016-12-15T00:26:06.752Z,4.26
2016-12-15T00:26:47.186Z,4.26
2016-12-15T00:27:27.734Z,4.26
2016-12-15T00:28:08.212Z,4.23
2016-12-15T00:28:48.661Z,4.28
2016-12-15T00:29:29.138Z,4.26
2016-12-15T00:30:09.605Z,4.22
2016-12-15T00:30:50.069Z,4.2
2016-12-15T00:31:30.559Z,4.3
2016-12-15T00:32:11.032Z,4.37
2016-12-15T00:32:51.491Z,4.28
2016-12-15T00:33:31.992Z,4.28
2016-12-15T00:34:12.451Z,4.35
2016-12-15T00:34:52.935Z,4.23
2016-12-15T00:35:33.420Z,4.31
2016-12-15T00:36:13.918Z,4.37
2016-12-15T00:36:54.404Z,4.31
2016-12-15T00:37:34.865Z,4.28
2016-12-15T00:38:15.314Z,4.38
2016-12-15T00:38:55.797Z,4.37
2016-12-15T00:39:36.264Z,4.3
2016-12-15T00:40:16.758Z,4.38
2016-12-15T00:40:57.214Z,4.38
2016-12-15T00:41:37.695Z,4.38
2016-12-15T00:42:18.171Z,4.41
2016-12-15T00:42:58.636Z,4.38
2016-12-15T00:43:39.118Z,4.38
2016-12-15T00:44:19.605Z,4.4
2016-12-15T00:45:00.059Z,4.48
2016-12-15T00:45:40.521Z,4.38
2016-12-15T00:46:21.010Z,4.44
2016-12-15T00:47:01.455Z,4.35
2016-12-15T00:47:41.910Z,4.38
2016-12-15T00:48:22.403Z,4.45
2016-12-15T00:49:02.874Z,4.44
2016-12-15T00:49:43.346Z,4.44
2016-12-15T00:50:23.806Z,4.41
2016-12-15T00:51:04.276Z,4.44
2016-12-15T00:51:44.759Z,4.35
2016-12-15T00:52:25.293Z,4.4
2016-12-15T00:53:05.684Z,4.44
2016-12-15T00:53:46.175Z,4.41
2016-12-15T00:54:26.659Z,4.45
2016-12-15T00:55:07.140Z,4.44
2016-12-15T00:55:47.591Z,4.42
2016-12-15T00:56:28.059Z,4.42
2016-12-15T00:57:08.551Z,4.41
2016-12-15T00:57:49.022Z,4.53
2016-12-15T00:58:29.509Z,4.42
2016-12-15T00:59:09.966Z,4.44
2016-12-15T00:59:50.438Z,4.45
2016-12-15T01:00:30.892Z,4.45
2016-12-15T01:01:11.353Z,4.49
2016-12-15T01:01:51.831Z,4.45
2016-12-15T01:02:32.302Z,4.45
2016-12-15T01:03:12.790Z,4.49
2016-12-15T01:03:53.256Z,4.49
2016-12-15T01:04:33.733Z,4.41
2016-12-15T01:05:14.235Z,4.44
2016-12-15T01:05:54.711Z,4.45
2016-12-15T01:06:35.192Z,4.5
2016-12-15T01:07:15.627Z,4.5
2016-12-15T01:07:56.120Z,4.49
2016-12-15T01:08:36.577Z,4.48
2016-12-15T01:09:17.064Z,4.41
2016-12-15T01:09:57.523Z,4.5
2016-12-15T01:10:38.012Z,4.49
2016-12-15T01:11:18.465Z,4.44
2016-12-15T01:11:58.961Z,4.5
2016-12-15T01:12:39.427Z,4.48
2016-12-15T01:13:19.887Z,4.5
2016-12-15T01:14:00.379Z,4.48
2016-12-15T01:14:40.854Z,4.45
2016-12-15T01:15:21.333Z,4.45
2016-12-15T01:16:01.815Z,4.44
2016-12-15T01:16:42.293Z,4.42
2016-12-15T01:17:22.782Z,4.49
2016-12-15T01:18:03.237Z,4.48
2016-12-15T01:18:43.705Z,4.56
2016-12-15T01:19:24.162Z,4.48
2016-12-15T01:20:04.654Z,4.5
2016-12-15T01:20:45.152Z,4.44
2016-12-15T01:21:25.623Z,4.48
2016-12-15T01:22:06.103Z,4.4
2016-12-15T01:22:46.575Z,4.38
2016-12-15T01:23:27.056Z,4.42
2016-12-15T01:24:07.522Z,4.41
2016-12-15T01:24:48.006Z,4.42
2016-12-15T01:25:28.475Z,4.42
2016-12-15T01:26:08.972Z,4.35
2016-12-15T01:26:49.437Z,4.45
2016-12-15T01:27:29.919Z,4.37
2016-12-15T01:28:10.389Z,4.44
2016-12-15T01:28:50.891Z,4.4
2016-12-15T01:29:31.376Z,4.45
2016-12-15T01:30:11.858Z,4.42
2016-12-15T01:30:52.344Z,4.42
2016-12-15T01:31:32.741Z,4.37
2016-12-15T01:32:13.211Z,4.44
2016-12-15T01:32:53.686Z,4.44
2016-12-15T01:33:34.150Z,4.44
2016-12-15T01:34:14.630Z,4.42
2016-12-15T01:34:55.117Z,4.44
2016-12-15T01:35:35.641Z,4.41
2016-12-15T01:36:16.112Z,4.37
2016-12-15T01:36:56.571Z,4.42
2016-12-15T01:37:37.070Z,4.4
2016-12-15T01:38:17.553Z,4.4
2016-12-15T01:38:58.057Z,4.37
2016-12-15T01:39:38.498Z,4.3
2016-12-15T01:40:19.015Z,4.38
2016-12-15T01:40:59.479Z,4.24
2016-12-15T01:41:39.970Z,4.4
2016-12-15T01:42:20.425Z,4.41
2016-12-15T01:43:00.945Z,4.35
2016-12-15T01:43:41.379Z,4.37
2016-12-15T01:44:21.916Z,4.41
2016-12-15T01:45:02.364Z,4.4
2016-12-15T01:45:42.852Z,4.34
2016-12-15T01:46:23.331Z,4.42
2016-12-15T01:47:03.785Z,4.34
2016-12-15T01:47:44.268Z,4.32
2016-12-15T01:48:24.721Z,4.37
2016-12-15T01:49:05.202Z,4.26
2016-12-15T01:49:45.693Z,4.38
2016-12-15T01:50:26.164Z,4.44
2016-12-15T01:51:06.631Z,4.37
2016-12-15T01:51:47.096Z,4.34
2016-12-15T01:52:27.552Z,4.35
2016-12-15T01:53:08.021Z,4.35
2016-12-15T01:53:48.470Z,4.34
2016-12-15T01:54:28.951Z,4.38
2016-12-15T01:55:09.458Z,4.3
2016-12-15T01:55:49.958Z,4.26
2016-12-15T01:56:30.407Z,4.22
2016-12-15T01:57:10.851Z,4.26
2016-12-15T01:57:51.341Z,4.28
2016-12-15T01:58:31.820Z,4.22
2016-12-15T01:59:12.285Z,4.13
2016-12-15T01:59:52.742Z,4.16
2016-12-15T02:00:33.219Z,4.23
2016-12-15T02:01:13.696Z,4.13
2016-12-15T02:01:54.181Z,4.17
2016-12-15T02:02:34.641Z,4.2
2016-12-15T02:03:15.109Z,4.06
2016-12-15T02:03:55.569Z,4.23
2016-12-15T02:04:36.052Z,4.23
2016-12-15T02:05:16.553Z,4.13
2016-12-15T02:05:57.008Z,4.19
2016-12-15T02:06:37.485Z,4.23
2016-12-15T02:07:17.935Z,4.26
2016-12-15T02:07:58.401Z,4.13
2016-12-15T02:08:38.887Z,4.14
2016-12-15T02:09:19.339Z,4.17
2016-12-15T02:09:59.835Z,4.23
2016-12-15T02:10:40.309Z,4.17
2016-12-15T02:11:20.765Z,4.19
2016-12-15T02:12:01.265Z,4.22
2016-12-15T02:12:41.716Z,4.16
2016-12-15T02:13:22.194Z,4.1
2016-12-15T02:14:02.672Z,4.22
2016-12-15T02:14:43.146Z,4.1
2016-12-15T02:15:23.637Z,4.12
2016-12-15T02:16:04.098Z,4.3
2016-12-15T02:16:44.578Z,4.19
2016-12-15T02:17:25.051Z,4.24
2016-12-15T02:18:05.506Z,4.14
2016-12-15T02:18:45.980Z,4.28
2016-12-15T02:19:26.450Z,4.23
2016-12-15T02:20:06.929Z,4.26
2016-12-15T02:20:47.411Z,4.14
2016-12-15T02:21:27.997Z,4.14
2016-12-15T02:22:08.467Z,4.16
2016-12-15T02:22:48.971Z,4.2
2016-12-15T02:23:29.419Z,4.19
2016-12-15T02:24:09.922Z,4.14
2016-12-15T02:24:50.397Z,4.17
2016-12-15T02:25:30.873Z,4.13
2016-12-15T02:26:11.360Z,4.17
2016-12-15T02:26:51.826Z,4.17
2016-12-15T02:27:32.306Z,4.1
2016-12-15T02:28:12.764Z,4.1
2016-12-15T02:28:53.228Z,4.16
2016-12-15T02:29:33.722Z,4.14
2016-12-15T02:30:14.164Z,4.01
2016-12-15T02:30:54.638Z,4.06
2016-12-15T02:31:35.114Z,4.1
2016-12-15T02:32:15.658Z,4.06
2016-12-15T02:32:56.113Z,4.02
2016-12-15T02:33:36.587Z,4.08
2016-12-15T02:34:17.052Z,4.02
2016-12-15T02:34:57.509Z,4.04
2016-12-15T02:35:37.974Z,3.94
2016-12-15T02:36:18.452Z,3.98
2016-12-15T02:36:58.933Z,3.95
2016-12-15T02:37:39.404Z,3.91
2016-12-15T02:38:19.903Z,3.91
2016-12-15T02:39:00.347Z,3.87
2016-12-15T02:39:40.793Z,3.95
2016-12-15T02:40:21.277Z,3.99
2016-12-15T02:41:01.749Z,3.81
2016-12-15T02:41:42.204Z,3.84
2016-12-15T02:42:22.701Z,3.86
2016-12-15T02:43:03.187Z,3.84
2016-12-15T02:43:43.666Z,3.87
2016-12-15T02:44:24.123Z,3.88
2016-12-15T02:46:17.653Z,3.74
2016-12-15T02:46:58.978Z,3.83
2016-12-15T02:47:39.047Z,3.74
2016-12-15T02:48:19.489Z,3.76
2016-12-15T02:48:59.951Z,3.68
2016-12-15T02:49:40.449Z,3.59
2016-12-15T02:50:20.909Z,3.6
2016-12-15T02:51:01.391Z,3.77
2016-12-15T02:51:41.830Z,3.65
2016-12-15T02:52:22.322Z,3.69
2016-12-15T02:53:02.769Z,3.7
2016-12-15T02:53:43.241Z,3.66
2016-12-15T02:54:23.702Z,3.6
2016-12-15T02:55:04.190Z,3.63
2016-12-15T02:55:44.616Z,3.68
2016-12-15T02:56:25.119Z,3.66
2016-12-15T02:57:05.587Z,3.55
2016-12-15T02:57:46.025Z,3.6
2016-12-15T02:58:26.523Z,3.55
2016-12-15T02:59:06.986Z,3.59
2016-12-15T02:59:47.474Z,3.48
2016-12-15T03:00:27.966Z,3.55
2016-12-15T03:01:08.406Z,3.5
2016-12-15T03:01:48.848Z,3.47
2016-12-15T03:02:29.328Z,3.41
2016-12-15T03:03:09.799Z,3.41
2016-12-15T03:03:50.243Z,3.45
2016-12-15T03:04:30.736Z,3.37
2016-12-15T03:05:11.212Z,3.47
2016-12-15T03:05:51.706Z,3.41
2016-12-15T03:06:32.172Z,3.31
2016-12-15T03:07:12.646Z,3.32
2016-12-15T03:07:53.128Z,3.34
2016-12-15T03:08:33.638Z,3.26
2016-12-15T03:09:14.051Z,3.34
2016-12-15T03:10:54.855Z,3.36
2016-12-15T03:11:36.947Z,3.4
2016-12-15T03:12:17.405Z,3.44
2016-12-15T03:12:57.900Z,3.29
2016-12-15T03:13:38.336Z,3.34
2016-12-15T03:14:18.785Z,3.29
2016-12-15T03:14:59.250Z,3.32
2016-12-15T03:15:39.701Z,3.26
2016-12-15T03:16:20.175Z,3.36
2016-12-15T03:17:00.656Z,3.22
2016-12-15T03:17:41.160Z,3.18
2016-12-15T03:18:21.594Z,3.11
2016-12-15T03:19:02.067Z,3.19
2016-12-15T03:19:42.521Z,3.19
2016-12-15T03:20:22.982Z,3.22
2016-12-15T03:21:03.423Z,3.18
2016-12-15T03:21:43.874Z,3.28
2016-12-15T03:22:24.347Z,3.19
2016-12-15T03:23:04.782Z,3.26
2016-12-15T03:23:45.248Z,3.13
2016-12-15T03:24:25.730Z,3.19
2016-12-15T03:25:06.185Z,3.22
2016-12-15T03:25:46.655Z,3.1
2016-12-15T03:26:27.135Z,3.04
2016-12-15T03:27:07.818Z,3.11
2016-12-15T03:27:48.280Z,3.05
2016-12-15T03:28:28.706Z,3.01
2016-12-15T03:29:09.174Z,2.98
2016-12-15T03:29:49.640Z,2.85
2016-12-15T03:30:30.091Z,2.95
2016-12-15T03:31:10.604Z,2.92
2016-12-15T03:31:51.073Z,2.92
2016-12-15T03:32:31.546Z,2.89
2016-12-15T03:33:12.014Z,2.92
2016-12-15T03:33:52.506Z,2.92
2016-12-15T03:34:32.948Z,2.9
2016-12-15T03:35:13.448Z,2.92
2016-12-15T03:35:53.885Z,2.9
2016-12-15T03:36:34.368Z,2.92
2016-12-15T03:37:14.859Z,2.9
2016-12-15T03:37:55.297Z,2.89
2016-12-15T03:38:35.819Z,2.87
2016-12-15T03:39:16.276Z,2.9
2016-12-15T03:39:56.791Z,2.9
2016-12-15T03:40:37.233Z,2.86
2016-12-15T03:41:17.719Z,2.9
2016-12-15T03:41:58.177Z,2.82
2016-12-15T03:42:38.668Z,2.82
2016-12-15T03:43:19.124Z,2.82
2016-12-15T03:43:59.568Z,2.79
2016-12-15T03:44:40.044Z,2.79
2016-12-15T03:45:20.514Z,2.75
2016-12-15T03:46:00.989Z,2.75
2016-12-15T03:46:41.470Z,2.77
2016-12-15T03:47:21.941Z,2.74
2016-12-15T03:48:02.392Z,2.67
2016-12-15T03:48:42.879Z,2.65
2016-12-15T03:49:23.299Z,2.64
2016-12-15T03:50:03.762Z,2.68
2016-12-15T03:50:44.221Z,2.72
2016-12-15T03:51:24.683Z,2.74
2016-12-15T03:52:05.124Z,2.75
2016-12-15T03:52:45.612Z,2.62
2016-12-15T03:53:26.090Z,2.67
2016-12-15T03:54:06.566Z,2.72
2016-12-15T03:54:46.988Z,2.71
2016-12-15T03:55:27.470Z,2.71
2016-12-15T03:56:07.948Z,2.62
2016-12-15T03:56:48.433Z,2.64
2016-12-15T03:57:28.916Z,2.65
2016-12-15T03:58:09.326Z,2.64
2016-12-15T03:58:49.819Z,2.57
2016-12-15T03:59:30.288Z,2.64
2016-12-15T04:00:10.742Z,2.67
2016-12-15T04:00:51.235Z,2.6
2016-12-15T04:01:31.685Z,2.62
2016-12-15T04:02:12.171Z,2.61
2016-12-15T04:02:52.727Z,2.6
2016-12-15T04:03:33.110Z,2.6
2016-12-15T04:04:13.557Z,2.65
2016-12-15T04:04:54.000Z,2.6
2016-12-15T04:05:34.437Z,2.62
2016-12-15T04:06:14.900Z,2.67
2016-12-15T04:06:55.341Z,2.61
2016-12-15T04:07:35.854Z,2.72
2016-12-15T04:08:16.299Z,2.64
2016-12-15T04:08:56.749Z,2.67
2016-12-15T04:09:37.231Z,2.6
2016-12-15T04:10:17.683Z,2.62
2016-12-15T04:10:58.141Z,2.65
2016-12-15T04:11:38.604Z,2.65
2016-12-15T04:12:19.068Z,2.61
2016-12-15T04:12:59.553Z,2.56
2016-12-15T04:13:40.003Z,2.64
2016-12-15T04:14:20.453Z,2.65
2016-12-15T04:15:00.987Z,2.53
2016-12-15T04:15:41.435Z,2.47
2016-12-15T04:16:21.885Z,2.51
2016-12-15T04:17:02.333Z,2.54
2016-12-15T04:17:42.820Z,2.54
2016-12-15T04:18:23.262Z,2.49
2016-12-15T04:19:03.719Z,2.49
2016-12-15T04:19:44.137Z,2.49
2016-12-15T04:20:24.624Z,2.49
2016-12-15T04:21:05.046Z,2.5
2016-12-15T04:21:45.526Z,2.5
2016-12-15T04:22:26.032Z,2.39
2016-12-15T04:23:06.467Z,2.38
2016-12-15T04:23:46.918Z,2.35
2016-12-15T04:24:27.390Z,2.5
2016-12-15T04:25:07.869Z,2.47
2016-12-15T04:25:48.331Z,2.36
2016-12-15T04:26:28.778Z,2.36
2016-12-15T04:27:09.262Z,2.38
2016-12-15T04:27:49.719Z,2.5
2016-12-15T04:28:30.155Z,2.54
2016-12-15T04:29:10.669Z,2.49
2016-12-15T04:29:51.132Z,2.49
2016-12-15T04:30:31.602Z,2.49
2016-12-15T04:31:12.040Z,2.46
2016-12-15T04:31:52.513Z,2.38
2016-12-15T04:32:32.990Z,2.36
2016-12-15T04:33:13.457Z,2.39
2016-12-15T04:33:53.899Z,2.38
2016-12-15T04:34:34.387Z,2.38
2016-12-15T04:35:14.848Z,2.47
2016-12-15T04:35:55.302Z,2.47
2016-12-15T04:36:35.756Z,2.53
2016-12-15T04:37:16.225Z,2.53
2016-12-15T04:37:56.668Z,2.47
2016-12-15T04:38:37.141Z,2.5
2016-12-15T04:39:17.609Z,2.42
2016-12-15T04:39:58.044Z,2.44
2016-12-15T04:40:38.495Z,2.53
2016-12-15T04:41:18.964Z,2.46
2016-12-15T04:41:59.441Z,2.53
2016-12-15T04:42:39.895Z,2.43
2016-12-15T04:43:20.361Z,2.53
2016-12-15T04:44:00.852Z,2.51
2016-12-15T04:44:41.311Z,2.49
2016-12-15T04:45:21.781Z,2.5
2016-12-15T04:46:02.254Z,2.51
2016-12-15T04:46:42.696Z,2.53
2016-12-15T04:47:23.140Z,2.49
2016-12-15T04:48:03.613Z,2.51
2016-12-15T04:48:44.108Z,2.47
2016-12-15T04:49:24.549Z,2.44
2016-12-15T04:50:05.011Z,2.53
2016-12-15T04:50:45.479Z,2.49
2016-12-15T04:51:25.947Z,2.5
2016-12-15T04:52:06.419Z,2.47
2016-12-15T04:52:46.895Z,2.47
2016-12-15T04:53:27.342Z,2.5
2016-12-15T04:54:07.782Z,2.44
2016-12-15T04:54:48.283Z,2.49
2016-12-15T04:55:28.729Z,2.5
2016-12-15T04:56:09.221Z,2.46
2016-12-15T04:56:49.659Z,2.49
2016-12-15T04:57:30.116Z,2.49
2016-12-15T04:58:10.634Z,2.47
2016-12-15T04:58:51.120Z,2.47
2016-12-15T04:59:31.555Z,2.38
2016-12-15T05:00:12.019Z,2.38
2016-12-15T05:00:52.505Z,2.32
2016-12-15T05:01:32.939Z,2.38
2016-12-15T05:02:13.393Z,2.5
2016-12-15T05:02:53.860Z,2.5
2016-12-15T05:03:34.318Z,2.51
2016-12-15T05:04:14.764Z,2.53
2016-12-15T05:04:55.228Z,2.38
2016-12-15T05:05:35.729Z,2.35
2016-12-15T05:06:16.149Z,2.53
2016-12-15T05:06:56.604Z,2.39
2016-12-15T05:07:37.081Z,2.43
2016-12-15T05:08:17.529Z,2.42
2016-12-15T05:08:58.029Z,2.44
2016-12-15T05:09:38.492Z,2.36
2016-12-15T05:10:18.930Z,2.44
2016-12-15T05:10:59.377Z,2.36
2016-12-15T05:11:39.857Z,2.38
2016-12-15T05:12:20.302Z,2.42
2016-12-15T05:13:00.803Z,2.39
2016-12-15T05:13:41.287Z,2.42
2016-12-15T05:14:21.752Z,2.35
2016-12-15T05:15:02.229Z,2.38
2016-12-15T05:15:42.676Z,2.49
2016-12-15T05:16:23.166Z,2.36
2016-12-15T05:17:03.636Z,2.36
2016-12-15T05:17:44.156Z,2.42
2016-12-15T05:18:24.634Z,2.33
2016-12-15T05:19:05.383Z,2.42
2016-12-15T05:19:45.910Z,2.36
2016-12-15T05:20:26.543Z,2.38
2016-12-15T05:21:07.204Z,2.53
2016-12-15T05:21:47.666Z,2.47
2016-12-15T05:22:28.153Z,2.46
2016-12-15T05:23:08.661Z,2.5
2016-12-15T05:23:49.144Z,2.54
2016-12-15T05:24:29.713Z,2.51
2016-12-15T05:25:10.205Z,2.54
2016-12-15T05:25:50.680Z,2.54
2016-12-15T05:26:31.156Z,2.51
2016-12-15T05:27:11.713Z,2.51
2016-12-15T05:27:52.178Z,2.47
2016-12-15T05:28:32.686Z,2.56
2016-12-15T05:29:13.188Z,2.57
2016-12-15T05:29:53.671Z,2.54
2016-12-15T05:30:34.188Z,2.49
2016-12-15T05:31:14.700Z,2.42
2016-12-15T05:31:55.177Z,2.49
2016-12-15T05:32:35.716Z,2.5
2016-12-15T05:33:16.199Z,2.5
2016-12-15T05:33:56.716Z,2.5
2016-12-15T05:34:37.189Z,2.49
2016-12-15T05:35:17.679Z,2.47
2016-12-15T05:35:58.163Z,2.5
2016-12-15T05:36:38.650Z,2.53
2016-12-15T05:37:19.146Z,2.35
2016-12-15T05:37:59.671Z,2.36
2016-12-15T05:38:40.162Z,2.46
2016-12-15T05:39:20.662Z,2.36
2016-12-15T05:40:01.130Z,2.32
2016-12-15T05:40:41.607Z,2.44
2016-12-15T05:41:22.113Z,2.42
2016-12-15T05:42:02.623Z,2.42
2016-12-15T05:42:43.110Z,2.31
2016-12-15T05:43:23.586Z,2.36
2016-12-15T05:44:04.089Z,2.39
2016-12-15T05:44:44.574Z,2.33
2016-12-15T05:45:25.093Z,2.33
2016-12-15T05:46:05.602Z,2.35
2016-12-15T05:46:46.110Z,2.42
2016-12-15T05:47:26.601Z,2.35
2016-12-15T05:48:07.085Z,2.32
2016-12-15T05:48:47.592Z,2.32
2016-12-15T05:49:28.105Z,2.38
2016-12-15T05:50:08.588Z,2.28
2016-12-15T05:50:49.084Z,2.33
2016-12-15T05:51:29.532Z,2.36
2016-12-15T05:52:10.030Z,2.35
2016-12-15T05:52:50.532Z,2.35
2016-12-15T05:53:30.988Z,2.36
2016-12-15T05:54:11.480Z,2.35
2016-12-15T05:54:51.963Z,2.33
2016-12-15T05:55:32.454Z,2.47
2016-12-15T05:56:12.969Z,2.35
2016-12-15T05:56:53.430Z,2.35
2016-12-15T05:57:33.918Z,2.36
2016-12-15T05:58:14.416Z,2.39
2016-12-15T05:58:54.907Z,2.42
2016-12-15T05:59:35.376Z,2.39
2016-12-15T06:00:15.873Z,2.32
2016-12-15T06:00:56.390Z,2.38
2016-12-15T06:01:36.866Z,2.43
2016-12-15T06:02:17.347Z,2.36
2016-12-15T06:02:57.858Z,2.33
2016-12-15T06:03:38.331Z,2.49
2016-12-15T06:04:18.825Z,2.53
2016-12-15T06:04:59.306Z,2.35
2016-12-15T06:05:39.771Z,2.38
2016-12-15T06:06:20.239Z,2.36
2016-12-15T06:07:00.750Z,2.36
2016-12-15T06:07:41.213Z,2.43
2016-12-15T06:08:21.710Z,2.33
2016-12-15T06:09:02.190Z,2.38
2016-12-15T06:09:42.685Z,2.32
2016-12-15T06:10:23.178Z,2.32
2016-12-15T06:11:03.660Z,2.25
2016-12-15T06:11:44.177Z,2.29
2016-12-15T06:12:24.634Z,2.32
2016-12-15T06:13:05.110Z,2.31
2016-12-15T06:13:45.612Z,2.29
2016-12-15T06:14:26.093Z,2.29
2016-12-15T06:15:06.572Z,2.32
2016-12-15T06:15:47.056Z,2.32
2016-12-15T06:16:27.535Z,2.28
2016-12-15T06:17:08.040Z,2.38
2016-12-15T06:17:48.543Z,2.36
2016-12-15T06:18:29.020Z,2.35
2016-12-15T06:19:09.536Z,2.31
2016-12-15T06:19:50.005Z,2.32
2016-12-15T06:20:30.515Z,2.29
2016-12-15T06:21:11.001Z,2.31
2016-12-15T06:21:51.460Z,2.26
2016-12-15T06:22:32.011Z,2.29
2016-12-15T06:23:12.547Z,2.33
2016-12-15T06:23:53.032Z,2.32
2016-12-15T06:24:33.866Z,2.46
2016-12-15T06:25:14.363Z,2.38
2016-12-15T06:25:54.841Z,2.38
2016-12-15T06:26:35.355Z,2.31
2016-12-15T06:27:15.817Z,2.35
2016-12-15T06:27:56.373Z,2.33
2016-12-15T06:28:36.882Z,2.39
2016-12-15T06:29:17.380Z,2.36
2016-12-15T06:29:57.875Z,2.36
2016-12-15T06:30:38.357Z,2.33
2016-12-15T06:31:18.856Z,2.35
2016-12-15T06:31:59.350Z,2.24
2016-12-15T06:32:39.834Z,2.33
2016-12-15T06:33:20.330Z,2.44
2016-12-15T06:34:00.842Z,2.35
2016-12-15T06:34:41.321Z,2.32
2016-12-15T06:35:21.814Z,2.33
2016-12-15T06:36:02.308Z,2.33
2016-12-15T06:36:42.825Z,2.28
2016-12-15T06:37:23.301Z,2.29
2016-12-15T06:38:03.757Z,2.33
2016-12-15T06:39:42.734Z,2.33
2016-12-15T06:40:23.141Z,2.31
2016-12-15T06:41:03.639Z,2.29
2016-12-15T06:41:44.120Z,2.33
2016-12-15T06:42:24.641Z,2.33
2016-12-15T06:43:05.064Z,2.36
2016-12-15T06:43:45.630Z,2.35
2016-12-15T06:44:26.103Z,2.32
2016-12-15T06:45:06.565Z,2.29
2016-12-15T06:45:47.076Z,2.32
2016-12-15T06:46:27.567Z,2.26
2016-12-15T06:47:08.070Z,2.31
2016-12-15T06:47:48.587Z,2.33
2016-12-15T06:48:29.065Z,2.35
2016-12-15T06:49:09.552Z,2.22
2016-12-15T06:49:50.065Z,2.38
2016-12-15T06:50:30.536Z,2.29
2016-12-15T06:51:10.988Z,2.29
2016-12-15T06:51:51.664Z,2.33
2016-12-15T06:52:32.108Z,2.24
2016-12-15T06:53:12.560Z,2.39
2016-12-15T06:53:53.040Z,2.32
2016-12-15T06:54:33.518Z,2.33
2016-12-15T06:55:14.007Z,2.33
2016-12-15T06:55:54.546Z,2.22
2016-12-15T06:56:35.497Z,2.36
2016-12-15T06:57:16.012Z,2.33
2016-12-15T06:57:56.708Z,2.25
2016-12-15T06:58:37.199Z,2.28
2016-12-15T06:59:17.770Z,2.31
2016-12-15T06:59:58.255Z,2.28
2016-12-15T07:00:38.753Z,2.32
2016-12-15T07:01:19.213Z,2.26
2016-12-15T07:01:59.976Z,2.29
2016-12-15T07:02:40.675Z,2.31
2016-12-15T07:03:21.110Z,2.36
2016-12-15T07:04:01.784Z,2.28
2016-12-15T07:04:42.265Z,2.25
2016-12-15T07:05:22.969Z,2.32
2016-12-15T07:06:03.448Z,2.32
2016-12-15T07:06:43.948Z,2.29
2016-12-15T07:07:24.442Z,2.29
2016-12-15T07:08:04.946Z,2.29
2016-12-15T07:08:45.433Z,2.24
2016-12-15T07:09:25.956Z,2.28
2016-12-15T07:10:06.471Z,2.26
2016-12-15T07:10:46.968Z,2.26
2016-12-15T07:11:27.470Z,2.31
2016-12-15T07:12:07.967Z,2.24
2016-12-15T07:12:48.746Z,2.25
2016-12-15T07:13:29.088Z,2.31
2016-12-15T07:14:09.590Z,2.31
2016-12-15T07:14:50.105Z,2.26
2016-12-15T07:15:30.566Z,2.28
2016-12-15T07:16:11.056Z,2.28
2016-12-15T07:16:51.564Z,2.31
2016-12-15T07:17:32.025Z,2.31
2016-12-15T07:18:12.498Z,2.29
2016-12-15T07:18:53.053Z,2.32
2016-12-15T07:19:33.609Z,2.32
2016-12-15T07:20:14.082Z,2.29
2016-12-15T07:20:54.599Z,2.28
2016-12-15T07:21:35.080Z,2.29
2016-12-15T07:22:15.571Z,2.26
2016-12-15T07:22:56.048Z,2.28
2016-12-15T07:23:36.534Z,2.33
2016-12-15T07:24:17.035Z,2.35
2016-12-15T07:24:57.498Z,2.32
2016-12-15T07:25:37.971Z,2.32
2016-12-15T07:26:18.444Z,2.35
2016-12-15T07:26:58.924Z,2.2
2016-12-15T07:27:39.423Z,2.33
2016-12-15T07:28:19.917Z,2.35
2016-12-15T07:29:00.397Z,2.33
2016-12-15T07:29:40.892Z,2.38
2016-12-15T07:30:21.372Z,2.33
2016-12-15T07:31:01.852Z,2.32
2016-12-15T07:31:42.350Z,2.36
2016-12-15T07:32:22.859Z,2.35
2016-12-15T07:33:03.350Z,2.38
2016-12-15T07:33:43.845Z,2.38
2016-12-15T07:34:24.314Z,2.44
2016-12-15T07:35:04.830Z,2.35
2016-12-15T07:35:45.306Z,2.32
2016-12-15T07:36:25.833Z,2.32
2016-12-15T07:37:06.275Z,2.29
2016-12-15T07:37:46.775Z,2.25
2016-12-15T07:38:27.254Z,2.24
2016-12-15T07:39:07.752Z,2.26
2016-12-15T07:39:48.248Z,2.24
2016-12-15T07:40:28.737Z,2.24
2016-12-15T07:41:09.231Z,2.32
2016-12-15T07:41:49.732Z,2.28
2016-12-15T07:42:30.217Z,2.26
2016-12-15T07:43:10.701Z,2.2
2016-12-15T07:43:51.203Z,2.25
2016-12-15T07:44:31.695Z,2.28
2016-12-15T07:45:12.202Z,2.32
2016-12-15T07:45:52.684Z,2.28
2016-12-15T07:46:33.155Z,2.25
2016-12-15T07:47:13.658Z,2.17
2016-12-15T07:47:54.188Z,2.26
2016-12-15T07:48:34.665Z,2.26
2016-12-15T07:49:15.136Z,2.28
2016-12-15T07:49:55.628Z,2.29
2016-12-15T07:50:36.177Z,2.24
2016-12-15T07:51:16.675Z,2.28
2016-12-15T07:51:57.172Z,2.24
2016-12-15T07:52:37.686Z,2.22
2016-12-15T07:53:18.285Z,2.28
2016-12-15T07:53:58.761Z,2.2
2016-12-15T07:54:39.250Z,2.15
2016-12-15T07:55:19.735Z,2.2
2016-12-15T07:56:00.235Z,2.2
2016-12-15T07:56:40.734Z,2.18
2016-12-15T07:57:21.230Z,2.24
2016-12-15T07:58:01.716Z,2.25
2016-12-15T07:58:42.202Z,2.26
2016-12-15T07:59:22.687Z,2.26
2016-12-15T08:00:03.189Z,2.26
2016-12-15T08:00:43.694Z,2.32
2016-12-15T08:01:24.192Z,2.26
2016-12-15T08:02:04.679Z,2.26
2016-12-15T08:02:45.156Z,2.26
2016-12-15T08:03:25.626Z,2.26
2016-12-15T08:04:06.127Z,2.18
2016-12-15T08:04:46.605Z,2.28
2016-12-15T08:05:27.098Z,2.2
2016-12-15T08:06:07.575Z,2.22
2016-12-15T08:06:48.065Z,2.25
2016-12-15T08:07:28.519Z,2.31
2016-12-15T08:08:09.014Z,2.22
2016-12-15T08:08:49.502Z,2.17
2016-12-15T08:09:29.974Z,2.29
2016-12-15T08:10:10.504Z,2.24
2016-12-15T08:10:50.976Z,2.2
2016-12-15T08:11:31.443Z,2.25
2016-12-15T08:12:11.956Z,2.26
2016-12-15T08:12:52.454Z,2.18
2016-12-15T08:13:32.982Z,2.17
2016-12-15T08:14:13.485Z,2.14
2016-12-15T08:14:54.000Z,2.1
2016-12-15T08:15:34.495Z,2.1
2016-12-15T08:16:15.003Z,2.14
2016-12-15T08:16:55.487Z,2.08
2016-12-15T08:17:36.026Z,2.08
2016-12-15T08:18:16.494Z,2.14
2016-12-15T08:18:56.972Z,2.13
2016-12-15T08:19:37.460Z,2.1
2016-12-15T08:20:17.925Z,2.13
2016-12-15T08:20:58.487Z,2.15
2016-12-15T08:21:38.975Z,2.1
2016-12-15T08:22:19.471Z,2.13
2016-12-15T08:22:59.978Z,2.13
2016-12-15T08:23:40.416Z,2.08
2016-12-15T08:24:20.917Z,2.11
2016-12-15T08:25:01.411Z,2.11
2016-12-15T08:25:41.865Z,2.13
2016-12-15T08:26:22.378Z,2.11
2016-12-15T08:27:03.512Z,2.17
2016-12-15T08:27:43.991Z,2.13
2016-12-15T08:28:24.469Z,2.14
2016-12-15T08:29:04.977Z,2.25
2016-12-15T08:29:45.456Z,2.14
2016-12-15T08:30:25.984Z,2.15
2016-12-15T08:31:06.517Z,2.25
2016-12-15T08:31:46.983Z,2.25
2016-12-15T08:32:27.466Z,2.13
2016-12-15T08:33:07.968Z,2.13
2016-12-15T08:33:48.942Z,2.14
2016-12-15T08:34:29.432Z,2.11
2016-12-15T08:35:09.928Z,2.14
2016-12-15T08:35:50.425Z,2.14
2016-12-15T08:36:30.898Z,2.08
2016-12-15T08:37:11.375Z,2.15
2016-12-15T08:37:51.852Z,2.14
2016-12-15T08:38:32.339Z,2.1
2016-12-15T08:39:12.844Z,2.14
2016-12-15T08:39:53.339Z,2.08
2016-12-15T08:40:33.803Z,2.11
2016-12-15T08:41:14.271Z,2.11
2016-12-15T08:41:54.746Z,2.1
2016-12-15T08:42:35.284Z,2.2
2016-12-15T08:43:16.753Z,2.11
2016-12-15T08:43:57.226Z,2.11
2016-12-15T08:44:37.730Z,2.11
2016-12-15T08:45:18.366Z,2.15
2016-12-15T08:45:58.872Z,2.18
2016-12-15T08:46:39.358Z,2.17
2016-12-15T08:47:19.860Z,2.15
2016-12-15T08:48:00.331Z,2.24
2016-12-15T08:48:40.875Z,2.2
2016-12-15T08:49:21.677Z,2.28
2016-12-15T08:50:02.393Z,2.24
2016-12-15T08:50:42.882Z,2.25
2016-12-15T08:51:23.373Z,2.25
2016-12-15T08:52:03.841Z,2.28
2016-12-15T08:52:44.343Z,2.25
2016-12-15T08:53:24.852Z,2.26
2016-12-15T08:54:05.299Z,2.28
2016-12-15T08:54:45.797Z,2.32
2016-12-15T08:55:26.460Z,2.32
2016-12-15T08:56:06.940Z,2.28
2016-12-15T08:56:47.531Z,2.32
2016-12-15T08:57:27.994Z,2.28
2016-12-15T08:58:08.486Z,2.31
2016-12-15T08:58:48.995Z,2.29
2016-12-15T08:59:29.549Z,2.33
2016-12-15T09:00:10.011Z,2.31
2016-12-15T09:00:50.611Z,2.29
2016-12-15T09:01:31.088Z,2.31
2016-12-15T09:02:11.568Z,2.35
2016-12-15T09:02:52.046Z,2.32
2016-12-15T09:03:32.513Z,2.35
2016-12-15T09:04:13.043Z,2.31